Time;durP1;ratioP1;P1;durP2;ratioP2;P2;SDS_P1;SDS_P2;PMS_P1;PMS_P2;Temp;Humidity;BMP_temperature;BMP_pressure;BME280_temperature;BME280_humidity;BME280_pressure;Samples;Min_cycle;Max_cycle;Signal;HPM_P1;HPM_P2
2022/01/17 00:00:21;;;;;;;;;;;3.50;99.90;;;2.88;100.00;102119.78;4930605;29;19930;-78
2022/01/17 00:02:50;;;;;;;;;;;3.60;99.90;;;2.91;100.00;102125.09;4929333;29;20414;-77
2022/01/17 00:05:18;;;;;;;;;;;5.90;99.90;;;2.89;100.00;102131.94;4945239;29;20308;-77
2022/01/17 00:07:45;;;;;;;;;;;5.80;99.90;;;2.87;100.00;102138.81;4963393;28;19938;-76
2022/01/17 00:10:12;;;;;;;;;;;3.50;99.90;;;2.83;100.00;102156.91;4965141;28;20311;-79
2022/01/17 00:12:44;;;;;;;;;;;5.00;99.90;;;2.82;100.00;102143.84;4965412;28;19937;-79
2022/01/17 00:15:40;;;;;;;;;;;3.30;99.90;;;2.80;100.00;102143.78;4949161;28;19933;-75
2022/01/17 00:18:25;;;;;;;;;;;6.30;99.90;;;2.91;100.00;102144.16;4965431;28;19965;-78
2022/01/17 00:20:52;;;;;;;;;;;6.00;99.90;;;2.87;100.00;102138.81;4928792;29;19926;-76
2022/01/17 00:23:19;;;;;;;;;;;6.10;99.90;;;2.91;100.00;102138.09;4926426;29;19930;-76
2022/01/17 00:25:46;;;;;;;;;;;3.50;99.90;;;2.83;100.00;102133.50;4942213;29;20307;-75
2022/01/17 00:28:13;;;;;;;;;;;3.50;99.90;;;2.82;100.00;102131.72;4926666;29;20541;-78
2022/01/17 00:30:40;;;;;;;;;;;5.80;99.90;;;2.77;100.00;102133.28;4927676;29;19931;-77
2022/01/17 00:33:07;;;;;;;;;;;3.50;99.90;;;2.77;100.00;102132.38;4941229;29;19937;-78
2022/01/17 00:35:33;;;;;;;;;;;4.10;99.90;;;2.81;100.00;102135.16;4925856;29;19934;-78
2022/01/17 00:38:00;;;;;;;;;;;6.30;99.90;;;2.80;100.00;102130.78;4926146;29;20383;-77
2022/01/17 00:40:27;;;;;;;;;;;3.50;99.90;;;2.83;100.00;102135.22;4942079;28;19931;-78
2022/01/17 00:42:54;;;;;;;;;;;6.30;99.90;;;2.84;100.00;102140.47;4926559;29;19931;-78
2022/01/17 00:45:27;;;;;;;;;;;3.60;99.90;;;2.81;100.00;102148.16;4941213;29;19930;-77
2022/01/17 00:47:57;;;;;;;;;;;5.90;99.90;;;2.80;100.00;102154.19;4941229;29;19953;-78
2022/01/17 00:50:26;;;;;;;;;;;3.50;99.90;;;2.80;100.00;102143.78;4926769;29;20240;-77
2022/01/17 00:52:53;;;;;;;;;;;5.50;99.90;;;2.78;100.00;102148.06;4941093;29;19927;-77
2022/01/17 00:55:20;;;;;;;;;;;3.60;99.90;;;2.75;100.00;102145.34;4941575;29;19931;-78
2022/01/17 00:57:47;;;;;;;;;;;5.60;99.90;;;2.72;100.00;102137.41;4926898;29;19931;-78
2022/01/17 01:00:14;;;;;;;;;;;3.60;99.90;;;2.77;100.00;102138.47;4941488;28;19937;-79
2022/01/17 01:02:41;;;;;;;;;;;3.40;99.90;;;2.76;100.00;102136.72;4940678;29;20434;-77
2022/01/17 01:05:09;;;;;;;;;;;3.60;99.90;;;2.71;100.00;102135.63;4940405;29;20376;-77
2022/01/17 01:07:36;;;;;;;;;;;3.40;99.90;;;2.71;100.00;102137.38;4925138;29;19953;-78
2022/01/17 01:10:10;;;;;;;;;;;3.40;99.90;;;2.66;100.00;102130.28;4941114;28;19938;-75
2022/01/17 01:12:39;;;;;;;;;;;3.40;99.90;;;2.69;100.00;102135.59;4926082;28;20370;-77
2022/01/17 01:15:12;;;;;;;;;;;6.00;99.90;;;2.62;100.00;102130.13;4940658;29;19933;-77
2022/01/17 01:28:28;;;;;;;;;;;3.20;99.90;;;2.61;100.00;102151.75;4925325;29;19937;-78
2022/01/17 01:30:57;;;;;;;;;;;3.50;99.90;;;2.64;100.00;102144.91;4941090;29;19931;-78
2022/01/17 01:33:29;;;;;;;;;;;3.30;99.90;;;2.62;100.00;102143.13;4939662;29;19938;-78
2022/01/17 01:36:07;;;;;;;;;;;3.30;99.90;;;2.63;100.00;102144.88;4943699;29;19926;-77
2022/01/17 01:38:36;;;;;;;;;;;3.40;99.90;;;2.54;100.00;102146.28;4944099;28;20565;-76
2022/01/17 01:41:03;;;;;;;;;;;3.20;99.90;;;2.60;100.00;102144.78;4944711;29;19937;-77
2022/01/17 01:43:30;;;;;;;;;;;5.40;99.90;;;2.58;100.00;102146.44;4943141;29;19997;-78
2022/01/17 01:46:00;;;;;;;;;;;3.30;99.90;;;2.65;100.00;102148.41;4944200;29;19931;-78
2022/01/17 01:48:35;;;;;;;;;;;5.40;99.90;;;2.54;100.00;102148.88;4944311;29;19926;-78
2022/01/17 01:51:02;;;;;;;;;;;3.40;99.90;;;2.53;100.00;102147.13;4944551;29;20379;-77
2022/01/17 01:53:29;;;;;;;;;;;3.50;99.90;;;2.58;100.00;102138.63;4943382;29;19937;-77
2022/01/17 01:55:59;;;;;;;;;;;4.60;99.90;;;2.55;100.00;102142.88;4944573;29;20029;-79
2022/01/17 01:58:26;;;;;;;;;;;3.40;99.90;;;2.54;100.00;102148.03;4944105;29;19933;-78
2022/01/17 02:00:54;;;;;;;;;;;5.40;99.90;;;2.53;100.00;102148.84;4928647;29;19930;-77
2022/01/17 02:03:22;;;;;;;;;;;5.60;99.90;;;2.59;100.00;102150.81;4930490;29;19972;-77
2022/01/17 02:05:50;;;;;;;;;;;3.40;99.90;;;2.55;100.00;102157.59;4947540;29;19938;-77
2022/01/17 02:08:17;;;;;;;;;;;3.30;99.90;;;2.55;100.00;102150.66;4947145;28;19976;-78
2022/01/17 02:10:44;;;;;;;;;;;5.80;99.90;;;2.56;100.00;102167.16;4948811;28;20330;-78
2022/01/17 02:13:11;;;;;;;;;;;2.90;99.90;;;2.51;100.00;102177.38;4946590;28;19930;-78
2022/01/17 02:15:39;;;;;;;;;;;4.50;99.90;;;2.51;100.00;102172.16;4947115;29;20410;-77
2022/01/17 02:18:08;;;;;;;;;;;3.20;99.90;;;2.51;100.00;102168.69;4949244;28;20553;-77
2022/01/17 02:23:08;;;;;;;;;;;3.20;99.90;;;2.50;100.00;102185.13;4946462;29;19927;-78
2022/01/17 02:25:36;;;;;;;;;;;4.40;99.90;;;2.45;100.00;102184.03;4931492;29;19937;-78
2022/01/17 02:28:03;;;;;;;;;;;3.30;99.90;;;2.41;100.00;102181.31;4947081;29;19927;-77
2022/01/17 02:30:33;;;;;;;;;;;3.20;99.90;;;2.36;100.00;102175.06;4931093;28;19930;-78
2022/01/17 02:33:01;;;;;;;;;;;3.20;99.90;;;2.41;100.00;102181.31;4931109;29;19931;-78
2022/01/17 02:35:29;;;;;;;;;;;3.30;99.90;;;2.39;100.00;102172.59;4946452;29;19935;-77
2022/01/17 02:37:56;;;;;;;;;;;5.50;99.90;;;2.38;100.00;102168.22;4931209;29;19930;-76
2022/01/17 02:40:24;;;;;;;;;;;3.10;99.90;;;2.43;100.00;102175.31;4947109;29;19927;-78
2022/01/17 02:43:00;;;;;;;;;;;4.40;99.90;;;2.46;100.00;102180.59;4946153;29;19933;-77
2022/01/17 02:46:24;;;;;;;;;;;3.00;99.90;;;2.41;100.00;102186.53;4931547;29;20438;-77
2022/01/17 02:48:32;;;;;;;;;;;4.80;99.90;;;2.38;100.00;102190.69;4946590;29;20033;-77
2022/01/17 02:51:00;;;;;;;;;;;3.10;99.90;;;2.37;100.00;102189.84;4933040;29;20000;-78
2022/01/17 02:53:27;;;;;;;;;;;5.10;99.90;;;2.39;100.00;102192.47;4947808;29;20414;-78
2022/01/17 02:55:57;;;;;;;;;;;3.10;99.90;;;2.33;100.00;102185.31;4932867;29;20327;-78
2022/01/17 02:58:27;;;;;;;;;;;3.10;99.90;;;2.37;100.00;102182.03;4948633;29;19930;-77
2022/01/17 03:00:56;;;;;;;;;;;3.10;99.90;;;2.36;100.00;102181.97;4933012;28;19930;-78
2022/01/17 03:03:27;;;;;;;;;;;4.30;99.90;;;2.39;100.00;102169.09;4932017;29;19930;-78
2022/01/17 03:05:55;;;;;;;;;;;3.20;99.90;;;2.38;100.00;102162.13;4951243;28;19930;-78
2022/01/17 03:08:32;;;;;;;;;;;3.90;99.90;;;2.38;100.00;102155.22;4950900;28;19930;-76
2022/01/17 03:11:00;;;;;;;;;;;3.20;99.90;;;2.38;100.00;102156.94;4947923;29;20048;-77
2022/01/17 03:13:33;;;;;;;;;;;3.40;99.90;;;2.36;100.00;102140.41;4928268;29;19931;-79
2022/01/17 03:16:07;;;;;;;;;;;3.00;99.90;;;2.32;100.00;102143.72;4930205;29;19931;-78
2022/01/17 03:18:39;;;;;;;;;;;3.10;99.90;;;2.29;100.00;102131.47;4930571;29;19952;-77
2022/01/17 03:21:08;;;;;;;;;;;5.40;99.90;;;2.28;100.00;102142.69;4931060;29;19937;-77
2022/01/17 03:23:37;;;;;;;;;;;6.00;99.90;;;2.33;100.00;102155.88;4913876;29;20327;-77
2022/01/17 03:26:04;;;;;;;;;;;3.10;99.90;;;2.33;100.00;102158.47;4930095;29;19938;-77
2022/01/17 03:28:31;;;;;;;;;;;3.00;99.90;;;2.36;100.00;102171.56;4917601;29;19942;-78
2022/01/17 03:30:59;;;;;;;;;;;3.10;99.90;;;2.38;100.00;102175.13;4932088;28;19930;-78
2022/01/17 03:33:26;;;;;;;;;;;3.10;99.90;;;2.34;100.00;102170.63;4946341;29;20522;-77
2022/01/17 03:35:54;;;;;;;;;;;3.30;99.90;;;2.40;100.00;102176.06;4949041;28;19930;-78
2022/01/17 03:38:26;;;;;;;;;;;5.70;99.90;;;2.39;100.00;102180.38;4948354;29;19930;-78
2022/01/17 03:40:54;;;;;;;;;;;3.00;99.90;;;2.43;100.00;102181.41;4949732;28;19931;-76
2022/01/17 03:43:22;;;;;;;;;;;3.00;99.90;;;2.39;100.00;102185.59;4947918;28;19926;-78
2022/01/17 03:45:50;;;;;;;;;;;4.40;99.90;;;2.39;100.00;102192.47;4948805;28;19969;-77
2022/01/17 03:48:18;;;;;;;;;;;3.00;99.90;;;2.41;100.00;102190.81;4932437;29;19926;-78
2022/01/17 03:50:46;;;;;;;;;;;3.20;99.90;;;2.44;100.00;102195.25;4949682;28;19941;-78
2022/01/17 03:53:12;;;;;;;;;;;3.10;99.90;;;2.41;100.00;102196.91;4948082;28;19927;-78
2022/01/17 03:55:39;;;;;;;;;;;3.20;99.90;;;2.42;100.00;102182.22;4948236;29;19940;-78
2022/01/17 03:58:07;;;;;;;;;;;3.00;99.90;;;2.40;100.00;102179.56;4947977;29;19931;-79
2022/01/17 04:00:40;;;;;;;;;;;3.10;99.90;;;2.37;100.00;102170.75;4932522;29;19930;-78
2022/01/17 04:03:07;;;;;;;;;;;5.80;99.90;;;2.34;100.00;102155.94;4946554;29;19981;-78
2022/01/17 04:05:35;;;;;;;;;;;3.20;99.90;;;2.37;100.00;102157.75;4935716;28;20045;-78
2022/01/17 04:08:02;;;;;;;;;;;3.30;99.90;;;2.36;100.00;102158.59;4966817;28;19952;-77
2022/01/17 04:10:29;;;;;;;;;;;3.00;99.90;;;2.35;100.00;102159.41;4951002;28;19934;-77
2022/01/17 04:13:01;;;;;;;;;;;4.80;99.90;;;2.30;100.00;102150.56;4949712;28;20481;-77
2022/01/17 04:15:29;;;;;;;;;;;4.70;99.90;;;2.29;100.00;102160.06;4945812;29;19930;-77
2022/01/17 04:17:57;;;;;;;;;;;2.90;99.90;;;2.35;100.00;102149.03;4930656;29;19930;-77
2022/01/17 04:20:27;;;;;;;;;;;3.20;99.90;;;2.31;100.00;102161.00;4930558;28;19985;-77
2022/01/17 04:23:02;;;;;;;;;;;3.00;99.90;;;2.29;100.00;102160.06;4945581;29;19933;-78
2022/01/17 04:25:31;;;;;;;;;;;3.00;99.90;;;2.32;100.00;102161.91;4928672;29;19934;-76
2022/01/17 04:27:59;;;;;;;;;;;4.60;99.90;;;2.28;100.00;102171.28;4929071;29;19934;-77
2022/01/17 04:30:29;;;;;;;;;;;4.00;99.90;;;2.27;100.00;102174.69;4947076;28;20314;-78
2022/01/17 04:32:57;;;;;;;;;;;3.10;99.90;;;2.31;100.00;102166.19;4945467;29;19931;-78
2022/01/17 04:35:42;;;;;;;;;;;5.20;99.90;;;2.28;100.00;102165.22;4947545;28;20306;-78
2022/01/17 04:38:18;;;;;;;;;;;3.10;99.90;;;2.31;100.00;102155.81;4914755;29;20592;-77
2022/01/17 04:41:00;;;;;;;;;;;3.00;99.90;;;2.31;100.00;102152.34;4930315;28;19930;-77
2022/01/17 04:46:04;;;;;;;;;;;3.10;99.90;;;2.26;100.00;102139.16;4946224;29;19934;-77
2022/01/17 04:48:32;;;;;;;;;;;4.50;99.90;;;2.29;100.00;102148.81;4945606;29;20479;-78
2022/01/17 04:50:59;;;;;;;;;;;3.10;99.90;;;2.26;100.00;102147.84;4946039;29;20556;-77
2022/01/17 04:53:42;;;;;;;;;;;5.30;99.90;;;2.33;100.00;102156.75;4945051;29;19933;-78
2022/01/17 04:56:09;;;;;;;;;;;3.00;99.90;;;2.29;100.00;102165.25;4930107;29;19934;-78
2022/01/17 04:58:36;;;;;;;;;;;5.50;99.90;;;2.31;100.00;102174.00;4947932;28;19927;-78
2022/01/17 05:01:03;;;;;;;;;;;5.30;99.90;;;2.28;100.00;102173.00;4927402;29;20032;-76
2022/01/17 05:03:30;;;;;;;;;;;3.10;99.90;;;2.34;100.00;102158.53;4945511;28;19992;-78
2022/01/17 05:05:57;;;;;;;;;;;4.70;99.90;;;2.39;100.00;102166.50;4945973;29;19985;-77
2022/01/17 05:08:23;;;;;;;;;;;3.10;99.90;;;2.38;100.00;102170.81;4947757;28;20049;-78
2022/01/17 05:10:53;;;;;;;;;;;3.00;99.90;;;2.35;100.00;102170.72;4946219;29;19938;-77
2022/01/17 05:13:26;;;;;;;;;;;3.20;99.90;;;2.39;100.00;102162.19;4850047;28;1789279;-78
2022/01/17 05:16:06;;;;;;;;;;;3.10;99.90;;;2.35;100.00;102154.22;4927232;29;20364;-78
2022/01/17 05:21:03;;;;;;;;;;;3.00;99.90;;;2.36;100.00;102154.28;4951898;28;19931;-75
2022/01/17 05:23:30;;;;;;;;;;;3.20;99.90;;;2.40;100.00;102158.78;4945469;29;19937;-77
2022/01/17 05:25:57;;;;;;;;;;;4.60;99.90;;;2.41;100.00;102165.72;4931338;29;20335;-77
2022/01/17 05:28:24;;;;;;;;;;;3.30;99.90;;;2.35;100.00;102169.81;4945796;29;19936;-77
2022/01/17 05:30:52;;;;;;;;;;;3.10;99.90;;;2.40;100.00;102168.25;4930127;29;20383;-77
2022/01/17 05:33:18;;;;;;;;;;;3.20;99.90;;;2.44;100.00;102159.78;4945344;28;20620;-76
2022/01/17 05:35:45;;;;;;;;;;;3.30;99.90;;;2.39;100.00;102150.91;4944274;28;19937;-75
2022/01/17 05:38:28;;;;;;;;;;;3.20;99.90;;;2.51;100.00;102148.78;4942526;28;19933;-75
2022/01/17 05:40:54;;;;;;;;;;;4.70;99.90;;;2.39;100.00;102141.41;4939948;28;19930;-76
2022/01/17 05:43:21;;;;;;;;;;;3.30;99.90;;;2.45;100.00;102140.75;4943868;29;19930;-76
2022/01/17 05:45:48;;;;;;;;;;;3.00;99.90;;;2.47;100.00;102141.69;4945279;28;19933;-76
2022/01/17 05:48:15;;;;;;;;;;;3.90;99.90;;;2.38;100.00;102130.94;4945401;28;19930;-76
2022/01/17 05:50:42;;;;;;;;;;;3.40;99.90;;;2.41;100.00;102134.56;4945182;28;20383;-75
2022/01/17 05:53:10;;;;;;;;;;;3.10;99.90;;;2.43;100.00;102158.00;4945308;28;19941;-78
2022/01/17 05:55:37;;;;;;;;;;;3.10;99.90;;;2.42;100.00;102169.22;4945185;28;20660;-76
2022/01/17 05:58:04;;;;;;;;;;;3.20;99.90;;;2.45;100.00;102181.44;4944050;29;19931;-76
2022/01/17 06:00:31;;;;;;;;;;;3.20;99.90;;;2.45;100.00;102187.53;4957466;28;19930;-76
2022/01/17 06:02:58;;;;;;;;;;;3.20;99.90;;;2.47;100.00;102200.56;4963910;28;19926;-77
2022/01/17 06:05:25;;;;;;;;;;;3.30;99.90;;;2.49;100.00;102209.31;4940987;28;19930;-75
2022/01/17 06:07:52;;;;;;;;;;;3.00;99.90;;;2.44;100.00;102201.34;4927391;29;20288;-74
2022/01/17 06:10:19;;;;;;;;;;;3.40;99.90;;;2.45;100.00;102203.13;4943344;28;19935;-75
2022/01/17 06:13:04;;;;;;;;;;;3.40;99.90;;;2.41;100.00;102212.50;4942953;28;19938;-76
2022/01/17 06:15:31;;;;;;;;;;;3.40;99.90;;;2.40;100.00;102202.03;4975177;28;19930;-76
2022/01/17 06:17:58;;;;;;;;;;;3.40;99.90;;;2.46;100.00;102210.09;4959025;28;19927;-75
2022/01/17 06:20:25;;;;;;;;;;;3.30;99.90;;;2.50;100.00;102216.31;4976614;28;19941;-75
2022/01/17 06:22:52;;;;;;;;;;;3.30;99.90;;;2.51;100.00;102192.97;4944861;28;19984;-74
2022/01/17 06:25:19;;;;;;;;;;;5.10;99.90;;;2.50;100.00;102188.59;4943380;28;19941;-75
2022/01/17 06:27:46;;;;;;;;;;;5.90;99.90;;;2.48;100.00;102181.56;4943423;29;19937;-76
2022/01/17 06:30:13;;;;;;;;;;;3.20;99.90;;;2.50;100.00;102196.38;4927632;28;19938;-75
2022/01/17 06:32:41;;;;;;;;;;;5.00;99.90;;;2.51;100.00;102202.47;4943125;29;19931;-75
2022/01/17 06:35:10;;;;;;;;;;;3.20;99.90;;;2.54;100.00;102224.25;4944537;28;19935;-74
2022/01/17 06:37:39;;;;;;;;;;;3.20;99.90;;;2.51;100.00;102244.94;4945190;28;19937;-75
2022/01/17 06:40:07;;;;;;;;;;;3.30;99.90;;;2.48;100.00;102251.72;4944531;28;19954;-74
2022/01/17 06:42:35;;;;;;;;;;;3.30;99.90;;;2.53;100.00;102245.88;4943282;29;19930;-75
2022/01/17 06:45:04;;;;;;;;;;;3.30;99.90;;;2.54;100.00;102257.16;4927557;29;19930;-76
2022/01/17 06:47:32;;;;;;;;;;;3.30;99.90;;;2.57;100.00;102253.78;4945886;28;19930;-75
2022/01/17 06:50:00;;;;;;;;;;;4.30;99.90;;;2.57;100.00;102236.50;4947903;28;19966;-75
2022/01/17 06:52:26;;;;;;;;;;;3.20;99.90;;;2.55;100.00;102225.16;4946650;29;19997;-75
2022/01/17 06:54:53;;;;;;;;;;;5.30;99.90;;;2.52;100.00;102207.72;4946779;29;19937;-76
2022/01/17 06:57:22;;;;;;;;;;;3.30;99.90;;;2.56;100.00;102206.13;4947191;29;20387;-75
2022/01/17 06:59:49;;;;;;;;;;;3.20;99.90;;;2.50;100.00;102226.69;4946666;29;20490;-75
2022/01/17 07:02:17;;;;;;;;;;;3.60;99.90;;;2.56;100.00;102200.94;4930323;29;19926;-74
2022/01/17 07:04:47;;;;;;;;;;;4.40;99.90;;;2.55;100.00;102176.66;4931119;29;19927;-75
2022/01/17 07:07:14;;;;;;;;;;;3.30;99.90;;;2.58;100.00;102178.50;4946611;29;19930;-76
2022/01/17 07:09:41;;;;;;;;;;;3.30;99.90;;;2.65;100.00;102200.41;4946664;29;20019;-75
2022/01/17 07:12:11;;;;;;;;;;;3.30;99.90;;;2.61;100.00;102230.56;4936095;28;20030;-75
2022/01/17 07:14:50;;;;;;;;;;;3.30;99.90;;;2.54;100.00;102229.44;4928550;29;20725;-76
2022/01/17 07:17:17;;;;;;;;;;;3.40;99.90;;;2.57;100.00;102249.47;4927809;29;20025;-75
2022/01/17 07:19:45;;;;;;;;;;;4.30;99.90;;;2.58;100.00;102258.19;4928637;29;19931;-75
2022/01/17 07:22:12;;;;;;;;;;;4.40;99.90;;;2.61;100.00;102264.38;4927374;29;19927;-75
2022/01/17 07:24:39;;;;;;;;;;;3.10;99.90;;;2.61;100.00;102287.75;4928137;29;19973;-75
2022/01/17 07:27:06;;;;;;;;;;;3.90;99.90;;;2.64;100.00;102315.59;4943342;29;19945;-76
2022/01/17 07:29:33;;;;;;;;;;;3.30;99.90;;;2.66;100.00;102306.16;4946028;29;19927;-76
2022/01/17 07:32:04;;;;;;;;;;;4.90;99.90;;;2.65;100.00;102301.78;4947444;29;19938;-75
2022/01/17 07:34:42;;;;;;;;;;;3.30;99.90;;;2.64;100.00;102285.28;4928379;29;19954;-76
2022/01/17 07:37:09;;;;;;;;;;;4.30;99.90;;;2.66;100.00;102283.66;4927112;29;19942;-76
2022/01/17 07:39:36;;;;;;;;;;;4.00;99.90;;;2.68;100.00;102287.19;4928234;29;20005;-75
2022/01/17 07:42:10;;;;;;;;;;;5.20;99.90;;;2.69;100.00;102290.66;4926998;29;19935;-75
2022/01/17 07:44:40;;;;;;;;;;;3.90;99.90;;;2.72;100.00;102289.91;5010082;28;19926;-75
2022/01/17 07:47:17;;;;;;;;;;;3.40;99.90;;;2.74;100.00;102296.06;4928448;29;20288;-76
2022/01/17 07:49:46;;;;;;;;;;;4.60;99.90;;;2.78;100.00;102304.03;4928033;29;19989;-75
2022/01/17 07:52:33;;;;;;;;;;;3.30;99.90;;;2.76;100.00;102302.19;4926959;29;20335;-75
2022/01/17 07:55:03;;;;;;;;;;;3.60;99.90;;;2.80;100.00;102304.97;4941871;28;19937;-74
2022/01/17 07:57:33;;;;;;;;;;;3.40;99.90;;;2.82;100.00;102310.25;4948117;29;19993;-73
2022/01/17 08:00:00;;;;;;;;;;;3.50;99.90;;;2.82;100.00;102307.66;4948512;28;19969;-74
2022/01/17 08:02:32;;;;;;;;;;;3.30;99.90;;;2.86;100.00;102306.03;4946678;28;19930;-74
2022/01/17 08:04:59;;;;;;;;;;;3.50;99.90;;;2.91;100.00;102302.78;4945457;29;19938;-76
2022/01/17 08:07:26;;;;;;;;;;;4.20;99.90;;;2.89;100.00;102313.94;4929845;29;19930;-74
2022/01/17 08:09:57;;;;;;;;;;;3.50;99.90;;;2.92;100.00;102321.91;4945612;29;20095;-74
2022/01/17 08:12:24;;;;;;;;;;;4.30;99.90;;;2.90;100.00;102327.03;4931685;29;19937;-74
2022/01/17 08:14:51;;;;;;;;;;;3.50;99.90;;;2.90;100.00;102326.16;4936327;28;19930;-75
2022/01/17 08:17:18;;;;;;;;;;;5.40;99.90;;;2.88;100.00;102331.28;4966011;28;20043;-76
2022/01/17 08:19:45;;;;;;;;;;;3.40;99.90;;;2.90;100.00;102328.75;4965823;28;19937;-76
2022/01/17 08:22:12;;;;;;;;;;;4.40;99.90;;;2.91;100.00;102321.00;4964652;28;20298;-75
2022/01/17 08:24:39;;;;;;;;;;;4.40;99.90;;;2.96;100.00;102324.66;4965703;28;19934;-75
2022/01/17 08:27:06;;;;;;;;;;;3.50;99.90;;;2.95;100.00;102322.00;4965733;28;19933;-76
2022/01/17 08:29:34;;;;;;;;;;;3.70;99.90;;;2.98;100.00;102330.81;4965678;28;19930;-75
2022/01/17 08:32:06;;;;;;;;;;;3.90;99.90;;;3.02;100.00;102331.81;4964369;28;19949;-76
2022/01/17 08:34:33;;;;;;;;;;;3.50;99.90;;;2.99;100.00;102326.50;4949237;28;19937;-76
2022/01/17 08:37:02;;;;;;;;;;;3.50;99.90;;;3.01;100.00;102310.97;4965992;28;20059;-75
2022/01/17 08:39:28;;;;;;;;;;;5.70;99.90;;;3.17;100.00;102310.72;4965798;28;19937;-77
2022/01/17 08:41:56;;;;;;;;;;;4.30;99.90;;;3.22;100.00;102303.09;4967890;28;20007;-77
2022/01/17 08:44:23;;;;;;;;;;;3.80;99.90;;;3.13;100.00;102298.44;4958977;28;19931;-77
2022/01/17 08:46:50;;;;;;;;;;;3.80;99.90;;;3.10;100.00;102294.00;4948574;28;20388;-76
2022/01/17 08:49:17;;;;;;;;;;;4.00;99.90;;;3.17;100.00;102309.81;4979911;28;20414;-79
2022/01/17 08:51:46;;;;;;;;;;;4.80;99.90;;;3.15;100.00;102316.69;4980780;28;20589;-78
2022/01/17 08:54:31;;;;;;;;;;;3.70;99.90;;;3.09;100.00;102323.44;4975151;28;19973;-78
2022/01/17 08:56:58;;;;;;;;;;;4.60;99.90;;;3.21;100.00;102329.94;4980027;28;19931;-78
2022/01/17 08:59:30;;;;;;;;;;;3.60;99.90;;;3.17;100.00;102321.13;4978492;28;19937;-77
2022/01/17 09:01:57;;;;;;;;;;;3.80;99.90;;;3.26;100.00;102324.06;4948036;29;19930;-77
2022/01/17 09:04:25;;;;;;;;;;;3.50;99.90;;;3.15;100.00;102327.97;4962217;28;19931;-77
2022/01/17 09:06:52;;;;;;;;;;;4.50;99.90;;;3.14;100.00;102339.22;4978062;28;19926;-77
2022/01/17 09:09:18;;;;;;;;;;;3.80;99.90;;;3.14;100.00;102354.81;4977800;28;19934;-78
2022/01/17 09:11:46;;;;;;;;;;;4.80;99.90;;;3.20;100.00;102354.16;4956664;28;20021;-77
2022/01/17 09:14:12;;;;;;;;;;;3.60;99.90;;;3.26;100.00;102350.06;4945812;29;19927;-78
2022/01/17 09:16:39;;;;;;;;;;;6.40;99.90;;;3.19;100.00;102368.00;4915567;29;20382;-77
2022/01/17 09:19:07;;;;;;;;;;;4.60;99.90;;;3.21;100.00;102361.16;4946887;28;19969;-78
2022/01/17 09:21:35;;;;;;;;;;;4.90;99.90;;;3.26;100.00;102350.06;4932238;28;20351;-78
2022/01/17 09:24:02;;;;;;;;;;;2.60;99.90;;;3.23;100.00;102336.94;4946666;29;19930;-78
2022/01/17 09:26:29;;;;;;;;;;;3.80;99.90;;;3.22;100.00;102329.09;4946637;29;19938;-77
2022/01/17 09:28:56;;;;;;;;;;;5.40;99.90;;;3.19;100.00;102323.75;4932133;28;19933;-77
2022/01/17 09:31:23;;;;;;;;;;;3.70;99.90;;;3.25;100.00;102330.09;4946649;29;20288;-79
2022/01/17 09:33:50;;;;;;;;;;;4.10;99.90;;;3.29;100.00;102328.50;4930383;29;19957;-79
2022/01/17 09:36:20;;;;;;;;;;;5.10;99.90;;;3.29;100.00;102345.84;4930077;29;20033;-80
2022/01/17 09:38:52;;;;;;;;;;;3.70;99.90;;;3.34;100.00;102352.09;4930432;28;20760;-79
2022/01/17 09:41:19;;;;;;;;;;;3.80;99.90;;;3.35;100.00;102357.34;4945548;29;19977;-78
2022/01/17 09:43:49;;;;;;;;;;;5.20;99.90;;;3.40;100.00;102370.53;4946000;29;19932;-78
2022/01/17 09:46:18;;;;;;;;;;;5.00;99.90;;;3.37;100.00;102362.63;4947950;29;19952;-78
2022/01/17 09:48:50;;;;;;;;;;;3.90;99.90;;;3.37;100.00;102386.03;4947063;29;19969;-78
2022/01/17 09:51:40;;;;;;;;;;;5.20;99.90;;;3.43;100.00;102375.84;4946666;29;19926;-79
2022/01/17 09:54:27;;;;;;;;;;;3.80;99.90;;;3.48;100.00;102384.72;4946401;28;19923;-78
2022/01/17 09:56:55;;;;;;;;;;;5.20;99.90;;;3.50;100.00;102392.59;4944517;29;19970;-78
2022/01/17 09:59:23;;;;;;;;;;;5.00;99.90;;;3.49;100.00;102377.78;4946058;29;20433;-77
2022/01/17 10:01:50;;;;;;;;;;;6.40;99.90;;;3.44;100.00;102387.16;4945261;29;19935;-78
2022/01/17 10:04:18;;;;;;;;;;;6.40;99.90;;;3.53;100.00;102410.94;4929104;29;20014;-78
2022/01/17 10:06:53;;;;;;;;;;;5.40;99.90;;;3.55;100.00;102391.94;4930383;29;19969;-79
2022/01/17 10:09:22;;;;;;;;;;;4.20;99.90;;;3.65;100.00;102398.38;4929167;29;20012;-78
2022/01/17 10:12:00;;;;;;;;;;;4.80;99.90;;;3.67;100.00;102401.03;4943780;28;19958;-78
2022/01/17 10:14:28;;;;;;;;;;;4.10;99.90;;;3.68;100.00;102392.41;4928874;29;19938;-78
2022/01/17 10:16:55;;;;;;;;;;;4.50;99.90;;;3.80;100.00;102389.34;4928398;29;20303;-79
2022/01/17 10:19:25;;;;;;;;;;;4.30;99.90;;;3.80;100.00;102411.09;4944080;29;19931;-78
2022/01/17 10:21:55;;;;;;;;;;;4.40;99.90;;;3.89;100.00;102404.41;4944515;28;19930;-78
2022/01/17 10:35:23;;;;;;;;;;;4.40;99.90;;;3.84;100.00;102380.84;4949413;29;20005;-77
2022/01/17 10:38:10;;;;;;;;;;;5.80;99.90;;;3.97;100.00;102384.75;4933853;29;20031;-77
2022/01/17 10:40:41;;;;;;;;;;;4.40;99.90;;;3.93;100.00;102375.06;4947099;29;20300;-77
2022/01/17 10:43:42;;;;;;;;;;;4.10;99.90;;;3.90;100.00;102403.59;4931396;29;19937;-77
2022/01/17 10:46:11;;;;;;;;;;;4.60;99.90;;;3.92;100.00;102399.34;4940315;28;20434;-78
2022/01/17 10:48:47;;;;;;;;;;;4.70;99.90;;;3.83;100.00;102402.50;4947373;29;19931;-78
2022/01/17 10:51:14;;;;;;;;;;;4.50;99.90;;;3.83;100.00;102412.94;4931790;29;20020;-78
2022/01/17 10:53:42;;;;;;;;;;;5.30;99.90;;;3.86;100.00;102428.66;4948194;28;19934;-77
2022/01/17 10:56:12;;;;;;;;;;;4.50;99.90;;;3.98;100.00;102441.22;4948409;29;20224;-76
2022/01/17 10:58:40;;;;;;;;;;;6.50;99.90;;;4.01;100.00;102428.31;4947856;29;19935;-77
2022/01/17 11:01:11;;;;;;;;;;;4.40;99.90;;;3.97;100.00;102429.91;4932505;29;19927;-77
2022/01/17 11:03:41;;;;;;;;;;;4.40;99.90;;;3.97;100.00;102429.03;4932966;29;20288;-77
2022/01/17 11:06:11;;;;;;;;;;;5.50;99.90;;;4.01;100.00;102443.94;4953946;29;19984;-77
2022/01/17 11:08:40;;;;;;;;;;;4.70;99.90;;;4.05;100.00;102442.34;4957917;28;20380;-77
2022/01/17 11:11:09;;;;;;;;;;;5.00;99.90;;;4.13;100.00;102448.69;4943797;29;19962;-77
2022/01/17 11:13:39;;;;;;;;;;;4.60;99.90;;;4.14;100.00;102437.47;4943054;28;19977;-77
2022/01/17 11:16:10;;;;;;;;;;;5.00;99.90;;;4.11;100.00;102416.50;4927904;29;19974;-77
2022/01/17 11:18:41;;;;;;;;;;;6.00;99.90;;;4.09;100.00;102402.53;4912589;29;19934;-77
2022/01/17 11:21:17;;;;;;;;;;;4.70;99.90;;;4.10;100.00;102393.88;4912214;29;19927;-76
2022/01/17 11:23:47;;;;;;;;;;;4.70;99.90;;;4.15;100.00;102399.28;4912499;29;19930;-77
2022/01/17 11:26:15;;;;;;;;;;;5.80;99.90;;;4.15;100.00;102400.16;4942901;29;19930;-77
2022/01/17 11:28:43;;;;;;;;;;;4.70;99.90;;;4.17;100.00;102406.31;4962239;28;19930;-78
2022/01/17 11:31:15;;;;;;;;;;;6.40;99.90;;;4.26;100.00;102406.63;4948098;29;19930;-80
2022/01/17 11:33:46;;;;;;;;;;;4.80;99.90;;;4.40;100.00;102394.09;4950241;28;20029;-78
2022/01/17 11:36:17;;;;;;;;;;;6.30;99.90;;;4.46;100.00;102389.91;4950018;29;19927;-78
2022/01/17 11:38:50;;;;;;;;;;;5.40;99.90;;;4.33;100.00;102379.06;4944870;28;19926;-79
2022/01/17 11:41:35;;;;;;;;;;;4.80;99.90;;;4.35;100.00;102372.16;4952748;28;19972;-79
2022/01/17 11:44:06;;;;;;;;;;;5.00;99.90;;;4.38;100.00;102377.50;4967820;28;20028;-79
2022/01/17 11:46:36;;;;;;;;;;;4.90;99.90;;;4.38;100.00;102368.78;4952065;28;20022;-79
2022/01/17 11:49:06;;;;;;;;;;;5.10;99.90;;;4.34;100.00;102365.19;4948168;28;20439;-79
2022/01/17 11:51:46;;;;;;;;;;;5.00;99.90;;;4.28;100.00;102361.47;4932916;29;20021;-79
2022/01/17 11:54:28;;;;;;;;;;;4.90;99.90;;;4.21;100.00;102389.94;4947816;29;19926;-79
2022/01/17 11:57:03;;;;;;;;;;;4.80;99.90;;;4.21;100.00;102371.72;4961988;28;19930;-77